createdAt,value
2023-05-19T00:01:21.453Z,5.63
2023-05-19T00:03:54.471Z,5.22
2023-05-19T00:06:32.979Z,5.35
2023-05-19T00:09:05.533Z,5.78
2023-05-19T00:11:36.297Z,5.25
2023-05-19T00:14:05.887Z,4.82
2023-05-19T00:16:33.982Z,6.10
2023-05-19T00:19:03.201Z,4.95
2023-05-19T00:21:31.797Z,4.70
2023-05-19T00:24:18.653Z,5.65
2023-05-19T00:26:59.659Z,4.78
2023-05-19T00:29:27.367Z,5.70
2023-05-19T00:31:54.920Z,5.65
2023-05-19T00:34:22.247Z,4.90
2023-05-19T00:36:49.269Z,4.85
2023-05-19T00:39:16.557Z,5.53
2023-05-19T00:41:44.006Z,5.43
2023-05-19T00:44:11.341Z,5.88
2023-05-19T00:46:38.435Z,4.85
2023-05-19T00:49:25.690Z,5.85
2023-05-19T00:52:26.663Z,5.80
2023-05-19T00:55:27.788Z,5.68
2023-05-19T00:57:57.937Z,6.13
2023-05-19T01:00:24.869Z,6.68
2023-05-19T01:02:52.413Z,6.43
2023-05-19T01:05:19.924Z,6.05
2023-05-19T01:07:47.595Z,5.25
2023-05-19T01:10:15.096Z,5.88
2023-05-19T01:12:42.209Z,6.13
2023-05-19T01:15:10.146Z,5.38
2023-05-19T01:17:55.009Z,7.10
2023-05-19T01:20:36.422Z,5.85
2023-05-19T01:23:54.805Z,6.28
2023-05-19T01:26:56.765Z,6.57
2023-05-19T01:29:30.544Z,6.03
2023-05-19T01:32:00.358Z,6.10
2023-05-19T01:34:29.591Z,5.78
2023-05-19T01:37:01.338Z,5.75
2023-05-19T01:39:28.827Z,6.57
2023-05-19T01:41:58.294Z,6.22
2023-05-19T01:44:25.734Z,6.65
2023-05-19T01:46:53.431Z,7.20
2023-05-19T01:49:40.704Z,6.97
2023-05-19T01:52:21.375Z,6.13
2023-05-19T01:54:49.248Z,6.43
2023-05-19T01:57:38.100Z,5.45
2023-05-19T02:01:03.836Z,5.63
2023-05-19T02:04:24.801Z,6.65
2023-05-19T02:07:10.208Z,6.03
2023-05-19T02:09:40.855Z,6.28
2023-05-19T02:12:16.901Z,6.20
2023-05-19T02:14:55.316Z,6.35
2023-05-19T02:17:23.684Z,7.05
2023-05-19T02:19:52.023Z,6.70
2023-05-19T02:22:38.750Z,6.50
2023-05-19T02:25:21.794Z,7.80
2023-05-19T02:27:49.693Z,6.20
2023-05-19T02:30:16.852Z,6.85
2023-05-19T02:32:46.971Z,7.57
2023-05-19T02:35:14.293Z,6.47
2023-05-19T02:37:42.327Z,6.72
2023-05-19T02:40:11.138Z,6.63
2023-05-19T02:42:38.160Z,6.32
2023-05-19T02:45:05.879Z,7.55
2023-05-19T02:47:35.431Z,7.07
2023-05-19T02:50:25.180Z,7.07
2023-05-19T02:53:05.439Z,7.68
2023-05-19T02:55:32.507Z,6.45
2023-05-19T02:57:59.622Z,7.43
2023-05-19T03:00:51.736Z,6.57
2023-05-19T03:03:24.677Z,7.05
2023-05-19T03:06:06.320Z,7.80
2023-05-19T03:08:57.141Z,6.32
2023-05-19T03:11:35.629Z,6.88
2023-05-19T03:16:45.593Z,6.75
2023-05-19T03:19:21.432Z,7.00
2023-05-19T03:24:52.487Z,8.40
2023-05-19T03:28:11.891Z,7.10
2023-05-19T03:36:41.597Z,7.20
2023-05-19T03:45:16.540Z,6.10
2023-05-19T03:51:28.531Z,6.65
2023-05-19T03:54:38.741Z,6.20
2023-05-19T03:57:24.648Z,7.00
2023-05-19T04:03:16.167Z,6.72
2023-05-19T04:05:59.899Z,6.70
2023-05-19T04:16:08.455Z,7.25
2023-05-19T04:20:06.842Z,8.65
2023-05-19T04:24:33.810Z,8.43
2023-05-19T04:40:26.413Z,9.68
2023-05-19T06:27:16.121Z,10.98
2023-05-19T06:29:43.421Z,9.65
2023-05-19T06:32:11.120Z,11.52
2023-05-19T06:35:00.972Z,9.52
2023-05-19T06:37:41.701Z,8.23
2023-05-19T06:40:09.695Z,8.13
2023-05-19T06:42:39.007Z,8.27
2023-05-19T06:45:15.104Z,7.95
2023-05-19T06:47:42.822Z,7.30
2023-05-19T06:50:29.958Z,7.57
2023-05-19T06:53:10.588Z,7.88
2023-05-19T06:55:50.479Z,8.15
2023-05-19T06:58:27.362Z,8.63
2023-05-19T07:00:55.982Z,8.63
2023-05-19T07:03:27.688Z,7.63
2023-05-19T07:06:16.221Z,7.57
2023-05-19T07:09:18.928Z,6.97
2023-05-19T07:11:59.504Z,7.45
2023-05-19T07:14:28.065Z,7.22
2023-05-19T07:16:55.442Z,6.20
2023-05-19T07:19:24.251Z,7.50
2023-05-19T07:21:55.033Z,7.57
2023-05-19T07:24:22.367Z,6.38
2023-05-19T07:26:49.532Z,6.47
2023-05-19T07:29:16.523Z,6.32
2023-05-19T07:31:43.636Z,10.55
2023-05-19T07:34:32.069Z,8.50
2023-05-19T07:37:17.220Z,8.85
2023-05-19T07:39:44.276Z,8.15
2023-05-19T07:42:11.639Z,9.73
2023-05-19T07:44:39.099Z,9.73
2023-05-19T07:47:06.413Z,8.52
2023-05-19T07:49:54.022Z,6.30
2023-05-19T07:52:34.838Z,14.15
2023-05-19T07:55:02.382Z,10.82
2023-05-19T07:57:29.502Z,10.50
2023-05-19T07:59:56.657Z,17.05
2023-05-19T08:02:23.853Z,8.75
2023-05-19T08:04:51.087Z,7.75
2023-05-19T08:07:37.932Z,9.32
2023-05-19T08:10:18.864Z,6.63
2023-05-19T08:12:47.471Z,10.68
2023-05-19T08:15:14.598Z,7.70
2023-05-19T08:17:42.333Z,14.85
2023-05-19T08:20:12.550Z,9.95
2023-05-19T08:22:59.980Z,10.80
2023-05-19T08:26:00.988Z,8.95
2023-05-19T08:28:41.626Z,11.07
2023-05-19T08:31:08.793Z,6.97
2023-05-19T08:33:56.031Z,5.10
2023-05-19T08:36:36.714Z,9.40
2023-05-19T08:39:03.891Z,7.88
2023-05-19T08:41:31.410Z,8.90
2023-05-19T08:43:59.309Z,8.98
2023-05-19T08:46:29.399Z,7.43
2023-05-19T08:49:18.980Z,8.18
2023-05-19T08:52:52.503Z,8.65
2023-05-19T08:55:36.789Z,6.63
2023-05-19T08:58:06.798Z,7.63
2023-05-19T09:00:34.452Z,8.48
2023-05-19T09:03:17.383Z,7.97
2023-05-19T09:06:06.036Z,7.82
2023-05-19T09:08:47.326Z,8.00
2023-05-19T09:11:15.778Z,8.18
2023-05-19T09:13:43.888Z,8.80
2023-05-19T09:16:19.280Z,7.25
2023-05-19T09:19:06.038Z,11.60
2023-05-19T09:21:47.135Z,9.50
2023-05-19T09:24:48.196Z,9.93
2023-05-19T09:27:21.622Z,9.20
2023-05-19T09:29:51.461Z,8.75
2023-05-19T09:32:28.281Z,7.65
2023-05-19T09:35:28.041Z,10.25
2023-05-19T09:38:33.056Z,10.07
2023-05-19T09:43:42.107Z,11.60
2023-05-19T09:46:14.641Z,9.10
2023-05-19T09:48:42.672Z,10.68
2023-05-19T09:51:23.162Z,11.02
2023-05-19T09:54:04.764Z,9.73
2023-05-19T09:56:34.806Z,7.18
2023-05-19T09:59:04.090Z,9.45
2023-05-19T10:01:33.832Z,10.63
2023-05-19T10:04:01.392Z,9.80
2023-05-19T10:06:29.916Z,9.88
2023-05-19T10:08:58.550Z,10.20
2023-05-19T10:11:27.558Z,9.68
2023-05-19T10:14:15.223Z,10.90
2023-05-19T10:16:57.936Z,11.40
2023-05-19T10:19:29.890Z,12.40
2023-05-19T10:21:57.255Z,10.60
2023-05-19T10:24:24.594Z,8.65
2023-05-19T10:27:04.101Z,9.32
2023-05-19T10:29:39.769Z,8.02
2023-05-19T10:32:15.988Z,11.10
2023-05-19T10:35:18.503Z,7.72
2023-05-19T10:38:28.027Z,9.68
2023-05-19T10:41:27.127Z,8.20
2023-05-19T10:44:06.201Z,10.00
2023-05-19T10:46:33.622Z,10.40
2023-05-19T10:49:01.098Z,11.10
2023-05-19T10:52:03.805Z,10.50
2023-05-19T10:54:43.733Z,9.30
2023-05-19T10:57:17.545Z,9.85
2023-05-19T11:00:05.117Z,9.30
2023-05-19T11:02:46.264Z,8.80
2023-05-19T11:05:23.142Z,8.98
2023-05-19T11:08:26.110Z,10.85
2023-05-19T11:11:16.801Z,8.65
2023-05-19T11:13:51.109Z,9.35
2023-05-19T11:16:32.785Z,8.77
2023-05-19T11:19:00.131Z,8.55
2023-05-19T11:21:52.493Z,8.10
2023-05-19T11:24:40.676Z,9.82
2023-05-19T11:27:17.860Z,9.35
2023-05-19T11:29:45.075Z,9.63
2023-05-19T11:32:13.782Z,11.40
2023-05-19T11:34:41.766Z,8.75
2023-05-19T11:37:29.469Z,10.57
2023-05-19T11:40:31.152Z,11.65
2023-05-19T11:43:32.145Z,7.60
2023-05-19T11:46:02.230Z,9.18
2023-05-19T11:48:30.284Z,8.63
2023-05-19T11:51:20.088Z,9.05
2023-05-19T11:54:01.823Z,9.07
2023-05-19T11:56:54.230Z,8.50
2023-05-19T11:59:56.179Z,9.98
2023-05-19T12:02:39.738Z,8.52
2023-05-19T12:05:09.554Z,7.93
2023-05-19T12:07:39.587Z,8.38
2023-05-19T12:10:07.201Z,8.48
2023-05-19T12:12:35.529Z,7.03
2023-05-19T12:15:04.264Z,8.07
2023-05-19T12:17:33.043Z,8.45
2023-05-19T12:20:04.930Z,6.00
2023-05-19T12:22:32.176Z,9.93
2023-05-19T12:25:12.131Z,10.07
2023-05-19T12:28:14.294Z,9.38
2023-05-19T12:31:17.224Z,9.68
2023-05-19T12:34:18.288Z,9.20
2023-05-19T12:36:58.991Z,11.32
2023-05-19T12:39:47.538Z,9.57
2023-05-19T12:42:48.099Z,10.18
2023-05-19T12:45:54.253Z,8.90
2023-05-19T12:48:59.290Z,8.60
2023-05-19T12:52:13.205Z,9.95
2023-05-19T12:55:01.701Z,7.70
2023-05-19T12:57:50.653Z,10.02
2023-05-19T13:00:33.395Z,10.00
2023-05-19T13:03:05.718Z,9.43
2023-05-19T13:05:37.156Z,9.43
2023-05-19T13:08:10.523Z,9.85
2023-05-19T13:10:39.517Z,10.88
2023-05-19T13:13:08.082Z,11.27
2023-05-19T13:15:41.153Z,11.77
2023-05-19T13:18:10.329Z,8.52
2023-05-19T13:20:38.727Z,9.70
2023-05-19T13:23:13.357Z,9.35
2023-05-19T13:26:23.998Z,10.75
2023-05-19T13:29:25.236Z,10.07
2023-05-19T13:32:26.212Z,10.75
2023-05-19T13:35:07.400Z,10.20
2023-05-19T13:37:34.952Z,11.68
2023-05-19T13:40:23.152Z,10.95
2023-05-19T13:43:24.229Z,9.65
2023-05-19T13:46:11.790Z,12.25
2023-05-19T13:48:59.602Z,12.68
2023-05-19T13:52:00.293Z,12.20
2023-05-19T13:55:01.181Z,12.40
2023-05-19T13:58:02.245Z,10.77
2023-05-19T14:01:03.215Z,10.07
2023-05-19T14:03:50.548Z,13.07
2023-05-19T14:06:18.278Z,11.18
2023-05-19T14:09:05.200Z,12.23
2023-05-19T14:11:46.137Z,12.68
2023-05-19T14:14:13.353Z,13.10
2023-05-19T14:16:43.680Z,13.65
2023-05-19T14:19:11.556Z,14.68
2023-05-19T14:21:38.658Z,13.45
2023-05-19T14:24:06.245Z,13.23
2023-05-19T14:26:53.220Z,11.93
2023-05-19T14:29:55.196Z,6.70
2023-05-19T14:32:36.097Z,4.93
2023-05-19T14:35:03.534Z,4.90
2023-05-19T14:37:32.211Z,6.78
2023-05-19T14:40:00.061Z,5.55
2023-05-19T14:42:27.158Z,5.13
2023-05-19T14:44:54.611Z,7.65
2023-05-19T14:47:42.654Z,5.20
2023-05-19T14:50:43.228Z,6.85
2023-05-19T14:54:41.204Z,7.25
2023-05-19T14:57:45.274Z,7.20
2023-05-19T15:00:46.219Z,5.10
2023-05-19T15:03:27.102Z,6.40
2023-05-19T15:05:54.361Z,7.22
2023-05-19T15:08:41.609Z,7.10
2023-05-19T15:11:24.884Z,7.65
2023-05-19T15:13:52.192Z,6.20
2023-05-19T15:16:41.092Z,8.15
2023-05-19T15:19:24.155Z,5.97
2023-05-19T15:21:51.457Z,4.72
2023-05-19T15:24:19.272Z,5.40
2023-05-19T15:27:06.248Z,6.35
2023-05-19T15:30:08.233Z,6.32
2023-05-19T15:32:59.394Z,6.55
2023-05-19T15:35:26.626Z,4.53
2023-05-19T15:37:56.128Z,4.38
2023-05-19T15:40:24.144Z,4.32
2023-05-19T15:43:11.290Z,4.30
2023-05-19T15:46:12.329Z,4.65
2023-05-19T15:49:13.265Z,5.38
2023-05-19T15:52:15.263Z,3.67
2023-05-19T15:55:16.381Z,5.00
2023-05-19T15:58:17.392Z,5.40
2023-05-19T16:01:18.291Z,4.82
2023-05-19T16:03:59.126Z,5.88
2023-05-19T16:06:27.765Z,4.78
2023-05-19T16:08:55.360Z,5.28
2023-05-19T16:11:23.700Z,5.55
2023-05-19T16:13:51.196Z,4.43
2023-05-19T16:16:38.625Z,4.60
2023-05-19T16:19:39.442Z,4.72
2023-05-19T16:22:20.623Z,5.53
2023-05-19T16:25:09.301Z,5.97
2023-05-19T16:27:52.895Z,5.95
2023-05-19T16:30:20.690Z,6.45
2023-05-19T16:32:48.127Z,5.28
2023-05-19T16:35:24.084Z,6.45
2023-05-19T16:37:51.620Z,5.82
2023-05-19T16:40:22.776Z,5.75
2023-05-19T16:43:00.866Z,6.47
2023-05-19T16:46:05.709Z,6.43
2023-05-19T16:53:13.347Z,3.83
2023-05-19T16:56:19.756Z,5.20
2023-05-19T17:02:48.773Z,2.70
2023-05-19T17:05:36.329Z,2.40
2023-05-19T17:08:17.752Z,2.33
2023-05-19T17:10:45.862Z,2.88
2023-05-19T17:13:16.139Z,2.97
2023-05-19T17:16:15.465Z,2.97
2023-05-19T17:19:20.444Z,3.03
2023-05-19T17:22:22.817Z,2.78
2023-05-19T17:25:25.538Z,4.72
2023-05-19T17:28:00.855Z,4.63
2023-05-19T17:30:39.990Z,4.28
2023-05-19T17:33:08.589Z,4.90
2023-05-19T17:35:48.315Z,4.05
2023-05-19T17:38:31.433Z,5.95
2023-05-19T17:41:10.732Z,4.78
2023-05-19T17:43:42.410Z,4.57
2023-05-19T17:46:31.919Z,4.32
2023-05-19T17:49:38.660Z,4.95
2023-05-19T17:53:03.782Z,4.38
2023-05-19T17:55:51.515Z,3.45
2023-05-19T17:58:24.863Z,2.97
2023-05-19T18:01:13.504Z,2.33
2023-05-19T18:04:12.131Z,2.05
2023-05-19T18:06:58.460Z,2.55
2023-05-19T18:09:46.014Z,3.05
2023-05-19T18:12:30.033Z,2.25
2023-05-19T18:15:24.566Z,3.20
2023-05-19T18:18:23.210Z,3.40
2023-05-19T18:20:51.288Z,2.65
2023-05-19T18:23:43.863Z,2.63
2023-05-19T18:26:25.017Z,2.95
2023-05-19T18:29:23.535Z,2.50
2023-05-19T18:31:58.236Z,3.13
2023-05-19T18:51:58.111Z,3.50
2023-05-19T19:03:21.793Z,4.15
2023-05-19T19:11:16.788Z,3.63
2023-05-19T19:14:13.872Z,4.20
2023-05-19T19:21:17.609Z,3.65
2023-05-19T19:24:48.463Z,2.72
2023-05-19T19:39:01.347Z,3.22
2023-05-19T19:41:54.814Z,3.88
2023-05-19T19:44:23.987Z,3.85
2023-05-19T19:47:13.428Z,3.58
2023-05-19T19:50:14.705Z,2.75
2023-05-19T19:52:55.106Z,3.38
2023-05-19T19:55:22.326Z,3.03
2023-05-19T19:57:51.692Z,3.92
2023-05-19T20:00:38.476Z,3.97
2023-05-19T20:03:40.833Z,3.88
2023-05-19T20:06:41.394Z,3.25
2023-05-19T20:09:42.463Z,3.22
2023-05-19T20:12:23.076Z,4.38
2023-05-19T20:14:51.581Z,4.18
2023-05-19T20:17:18.684Z,4.20
2023-05-19T20:19:45.937Z,3.78
2023-05-19T20:22:15.426Z,4.22
2023-05-19T20:25:02.447Z,5.03
2023-05-19T20:27:43.109Z,4.50
2023-05-19T20:30:11.704Z,5.75
2023-05-19T20:32:39.860Z,5.28
2023-05-19T20:35:07.392Z,7.75
2023-05-19T20:37:55.160Z,6.80
2023-05-19T20:40:56.482Z,7.43
2023-05-19T20:43:37.781Z,7.35
2023-05-19T20:46:25.549Z,7.65
2023-05-19T20:49:26.541Z,8.50
2023-05-19T20:52:29.412Z,7.38
2023-05-19T20:55:30.926Z,8.55
2023-05-19T20:58:08.903Z,8.55
2023-05-19T21:00:36.377Z,7.78
2023-05-19T21:03:23.672Z,8.70
2023-05-19T21:06:24.448Z,8.68
2023-05-19T21:09:25.465Z,9.30
2023-05-19T21:12:21.962Z,9.50
2023-05-19T21:15:03.879Z,9.77
2023-05-19T21:17:31.252Z,10.73
2023-05-19T21:19:59.839Z,10.65
2023-05-19T21:22:47.569Z,11.95
2023-05-19T21:25:28.177Z,10.25
2023-05-19T21:27:56.209Z,10.98
2023-05-19T21:30:24.006Z,11.57
2023-05-19T21:32:53.537Z,10.75
2023-05-19T21:35:20.859Z,10.93
2023-05-19T21:37:48.404Z,9.68
2023-05-19T21:40:15.664Z,11.00
2023-05-19T21:42:42.836Z,11.13
2023-05-19T21:45:10.731Z,12.73
2023-05-19T21:47:38.086Z,12.13
2023-05-19T21:50:25.512Z,12.45
2023-05-19T21:53:09.566Z,13.63
2023-05-19T21:55:36.724Z,14.00
2023-05-19T21:58:04.350Z,15.63
2023-05-19T22:00:31.811Z,16.48
2023-05-19T22:03:00.825Z,15.02
2023-05-19T22:05:35.180Z,18.63
2023-05-19T22:08:02.394Z,17.65
2023-05-19T22:10:29.664Z,21.23
2023-05-19T22:12:57.714Z,19.85
2023-05-19T22:15:24.868Z,21.33
2023-05-19T22:17:52.034Z,19.85
2023-05-19T22:20:19.140Z,21.00
2023-05-19T22:22:46.157Z,20.95
2023-05-19T22:25:13.196Z,21.80
2023-05-19T22:27:40.519Z,23.70
2023-05-19T22:30:08.207Z,24.05
2023-05-19T22:32:35.860Z,23.70
2023-05-19T22:35:02.994Z,23.35
2023-05-19T22:37:51.505Z,21.98
2023-05-19T22:40:52.500Z,25.35
2023-05-19T22:43:33.098Z,21.95
2023-05-19T22:46:20.627Z,24.85
2023-05-19T22:49:21.518Z,25.52
2023-05-19T22:52:23.950Z,24.65
2023-05-19T22:55:24.615Z,23.35
2023-05-19T22:58:25.620Z,23.20
2023-05-19T23:01:06.346Z,25.73
2023-05-19T23:03:33.434Z,25.27
2023-05-19T23:06:00.464Z,25.00
2023-05-19T23:08:47.512Z,26.30
2023-05-19T23:11:28.465Z,25.33
2023-05-19T23:13:55.429Z,26.33
2023-05-19T23:16:22.854Z,24.58
2023-05-19T23:18:49.936Z,24.65
2023-05-19T23:21:16.917Z,27.40
2023-05-19T23:24:04.508Z,25.80
2023-05-19T23:26:45.458Z,24.42
2023-05-19T23:29:32.558Z,26.38
2023-05-19T23:32:13.129Z,25.65
2023-05-19T23:34:40.113Z,24.00
2023-05-19T23:37:07.956Z,25.38
2023-05-19T23:39:35.037Z,24.77
2023-05-19T23:42:02.575Z,23.92
2023-05-19T23:44:30.161Z,23.63
2023-05-19T23:46:57.494Z,23.17
2023-05-19T23:49:44.520Z,21.83
2023-05-19T23:52:45.531Z,23.23
2023-05-19T23:55:34.049Z,22.77
2023-05-19T23:58:02.030Z,21.42
